Terminal Aerodrome Forecast
Issued by NWS

Home | Current Version | Previous Version | Text Only | Print | Product List | Glossary On
Versions: 1 2 3 4 5 6 7 8 9 10 11 12 13 14 15 16 17 18 19 20
000
FTUS46 KMTR 200531
TAFSNS
TAF
KSNS 200531Z 2006/2106 12020G28KT P6SM VCSH OVC040 WS015/22040KT
     FM201300 13015G20KT P6SM VCSH OVC040
     FM202100 13026G33KT P6SM VCSH BKN050
     FM210200 13031G37KT 5SM -RA OVC025=

USA.gov is the U.S. government's official web portal to all federal, state and local government web resources and services.